Ashippun, Wisconsin
Current Conditions -  °F | °C
As of 11:35 AM on Saturday 22 Nov 2014 (Local Time) from KRYV Reporting Station
Moderate Fog Moderate Fog  
Wind Chill:   Ceiling: 300
Heat Index:   Visibility: 0.5mi
Dew Point:   Wind: 9mph
Humidity: 100%   Direction: 200°SSW
Pressure: 29.84"   Gusts: NA
Location:  43.21°N, 88.52°W
Report Text: KRYV 221735Z AUTO 20008KT 1/2SM FG OVC003 04/04 A2984 RMK AO2 T00350035
Loading
Personal Weather Stations






























Interactive Weather Map New forecast layout! Learn more

10-Day Weather Forecast

Advertisements
Track Severe Weather on mobile